Wetterdaten: Woche 30.10.17 - 05.11.17 (KW44)
Datum Zeit Temp. A. Pool Temp. Feuchte A. Luftdruck Regen Wind Richtung Sonnenschein ET UV Solar Taupunkt Windchill Windben Empfang
30.10.2017 00:00 5,6 C 8,9 C 81 % 1014,5 hPa 0,0 l/m 20,9 km/h (4 Bft) W 0,00 h 0,000 mm 0,0 UV-I 0 W/m 2,6 C -2,6 C 33,1 km/h (5 Bft) 96,40 %
30.10.2017 01:00 5,5 C 8,9 C 83 % 1014,9 hPa 0,0 l/m 20,3 km/h (4 Bft) W-SW 0,00 h 0,025 mm 0,0 UV-I 0 W/m 2,9 C -2,5 C 31,0 km/h (5 Bft) 98,09 %
30.10.2017 02:00 5,7 C 8,9 C 81 % 1015,4 hPa 0,0 l/m 18,8 km/h (3 Bft) W-SW 0,00 h 0,026 mm 0,0 UV-I 0 W/m 2,8 C -1,7 C 29,3 km/h (5 Bft) 98,18 %
30.10.2017 03:00 5,6 C 8,9 C 80 % 1016,0 hPa 0,0 l/m 20,9 km/h (4 Bft) W 0,00 h 0,025 mm 0,0 UV-I 0 W/m 2,5 C -2,7 C 34,4 km/h (5 Bft) 99,45 %
30.10.2017 04:00 5,4 C 8,9 C 80 % 1016,7 hPa 0,0 l/m 16,3 km/h (3 Bft) W-SW 0,00 h 0,051 mm 0,0 UV-I 0 W/m 2,2 C -1,0 C 26,5 km/h (4 Bft) 95,74 %
30.10.2017 05:00 5,1 C 8,9 C 80 % 1017,1 hPa 0,0 l/m 16,2 km/h (3 Bft) W 0,00 h 0,025 mm 0,0 UV-I 0 W/m 2,0 C -1,3 C 25,4 km/h (4 Bft) 98,55 %
30.10.2017 06:00 5,3 C 8,9 C 82 % 1017,5 hPa 0,0 l/m 18,9 km/h (3 Bft) W 0,00 h 0,026 mm 0,0 UV-I 6 W/m 2,5 C -2,1 C 29,4 km/h (5 Bft) 97,86 %
30.10.2017 07:00 5,3 C 8,9 C 83 % 1018,3 hPa 0,0 l/m 19,8 km/h (4 Bft) W-SW 0,00 h 0,025 mm 0,0 UV-I 26 W/m 2,7 C -2,6 C 31,4 km/h (5 Bft) 98,94 %
30.10.2017 08:00 5,8 C 8,9 C 80 % 1019,1 hPa 0,0 l/m 20,9 km/h (4 Bft) W-SW 0,27 h 0,051 mm 0,0 UV-I 116 W/m 2,5 C -2,5 C 32,9 km/h (5 Bft) 96,44 %
30.10.2017 09:00 6,3 C 8,9 C 77 % 1019,5 hPa 0,2 l/m 23,3 km/h (4 Bft) W 0,30 h 0,076 mm 0,5 UV-I 209 W/m 2,6 C -2,6 C 37,5 km/h (5 Bft) 98,37 %
30.10.2017 10:00 6,3 C 8,9 C 77 % 1020,0 hPa 0,0 l/m 23,3 km/h (4 Bft) W-SW 0,00 h 0,127 mm 0,7 UV-I 171 W/m 2,6 C -2,5 C 35,7 km/h (5 Bft) 98,21 %
30.10.2017 11:00 7,0 C 8,9 C 75 % 1020,2 hPa 0,0 l/m 23,7 km/h (4 Bft) W 0,37 h 0,127 mm 1,1 UV-I 302 W/m 3,0 C -1,8 C 36,1 km/h (5 Bft) 99,45 %
30.10.2017 12:00 7,4 C 8,9 C 74 % 1020,2 hPa 0,0 l/m 21,6 km/h (4 Bft) W 0,43 h 0,178 mm 1,0 UV-I 247 W/m 3,1 C -0,5 C 34,9 km/h (5 Bft) 97,89 %
30.10.2017 13:00 7,5 C 8,9 C 75 % 1020,6 hPa 0,0 l/m 23,1 km/h (4 Bft) W-SW 0,67 h 0,178 mm 0,9 UV-I 249 W/m 3,3 C -0,9 C 36,0 km/h (5 Bft) 97,02 %
30.10.2017 14:00 7,0 C 8,9 C 76 % 1021,3 hPa 0,0 l/m 19,7 km/h (3 Bft) W-SW 0,03 h 0,152 mm 0,0 UV-I 98 W/m 3,0 C -0,2 C 30,7 km/h (5 Bft) 97,31 %
30.10.2017 15:00 5,8 C 8,9 C 82 % 1021,8 hPa 0,0 l/m 15,5 km/h (3 Bft) W-SW 0,70 h 0,076 mm 0,0 UV-I 126 W/m 3,0 C -0,1 C 23,6 km/h (4 Bft) 99,40 %
30.10.2017 16:00 6,1 C 8,9 C 80 % 1022,6 hPa 0,4 l/m 13,9 km/h (3 Bft) W 0,37 h 0,077 mm 0,0 UV-I 30 W/m 3,0 C 1,2 C 21,8 km/h (4 Bft) 97,39 %
30.10.2017 17:00 4,7 C 8,9 C 89 % 1023,5 hPa 0,4 l/m 14,6 km/h (3 Bft) W-SW 0,00 h 0,025 mm 0,0 UV-I 0 W/m 3,1 C -0,8 C 22,8 km/h (4 Bft) 97,31 %
30.10.2017 18:00 4,6 C 8,9 C 91 % 1024,5 hPa 0,2 l/m 9,1 km/h (2 Bft) W-SW 0,00 h 0,025 mm 0,0 UV-I 0 W/m 3,3 C 2,2 C 14,4 km/h (3 Bft) 98,21 %
30.10.2017 19:00 4,7 C 8,9 C 88 % 1025,1 hPa 0,0 l/m 13,7 km/h (3 Bft) W-SW 0,00 h 0,000 mm 0,0 UV-I 0 W/m 3,0 C -0,6 C 19,3 km/h (3 Bft) 99,22 %
30.10.2017 20:00 5,0 C 8,6 C 84 % 1025,6 hPa 0,0 l/m 14,8 km/h (3 Bft) W-SW 0,00 h 0,026 mm 0,0 UV-I 0 W/m 2,5 C -0,8 C 21,6 km/h (4 Bft) 96,86 %
30.10.2017 21:00 4,5 C 8,3 C 84 % 1026,1 hPa 0,0 l/m 10,6 km/h (2 Bft) W-SW 0,00 h 0,025 mm 0,0 UV-I 0 W/m 2,1 C 1,2 C 16,0 km/h (3 Bft) 97,44 %
30.10.2017 22:00 3,6 C 8,3 C 89 % 1026,2 hPa 0,0 l/m 9,4 km/h (2 Bft) SW 0,00 h 0,026 mm 0,0 UV-I 0 W/m 2,0 C 1,0 C 14,2 km/h (3 Bft) 98,79 %
30.10.2017 23:00 3,4 C 8,3 C 90 % 1026,2 hPa 0,0 l/m 9,1 km/h (2 Bft) SW 0,00 h 0,000 mm 0,0 UV-I 0 W/m 1,9 C 1,0 C 13,2 km/h (3 Bft) 98,72 %
31.10.2017 00:00 3,2 C 8,3 C 90 % 1026,3 hPa 0,0 l/m 8,1 km/h (2 Bft) W-SW 0,00 h 0,000 mm 0,0 UV-I 0 W/m 1,7 C 1,6 C 12,6 km/h (3 Bft) 97,13 %
31.10.2017 01:00 3,1 C 8,3 C 90 % 1026,4 hPa 0,0 l/m 7,2 km/h (2 Bft) SW 0,00 h 0,000 mm 0,0 UV-I 0 W/m 1,7 C 2,3 C 11,0 km/h (2 Bft) 97,33 %
31.10.2017 02:00 3,4 C 8,3 C 90 % 1026,2 hPa 0,0 l/m 9,5 km/h (2 Bft) SW 0,00 h 0,000 mm 0,0 UV-I 0 W/m 1,9 C 0,7 C 14,6 km/h (3 Bft) 99,34 %
31.10.2017 03:00 3,9 C 8,3 C 90 % 1026,0 hPa 0,0 l/m 11,5 km/h (2 Bft) W-SW 0,00 h 0,000 mm 0,0 UV-I 0 W/m 2,3 C -0,2 C 17,3 km/h (3 Bft) 96,81 %
31.10.2017 04:00 4,2 C 8,3 C 89 % 1026,1 hPa 0,0 l/m 11,3 km/h (2 Bft) W-SW 0,00 h 0,000 mm 0,0 UV-I 0 W/m 2,5 C 0,4 C 16,2 km/h (3 Bft) 97,54 %
31.10.2017 05:00 4,3 C 8,3 C 88 % 1026,1 hPa 0,0 l/m 10,5 km/h (2 Bft) W-SW 0,00 h 0,025 mm 0,0 UV-I 0 W/m 2,5 C 1,0 C 16,0 km/h (3 Bft) 98,19 %
31.10.2017 06:00 4,5 C 8,3 C 87 % 1026,1 hPa 0,0 l/m 12,3 km/h (3 Bft) W-SW 0,00 h 0,026 mm 0,0 UV-I 6 W/m 2,5 C -0,0 C 18,2 km/h (3 Bft) 99,28 %
31.10.2017 07:00 4,6 C 8,1 C 86 % 1026,7 hPa 0,0 l/m 10,4 km/h (2 Bft) W-SW 0,00 h 0,025 mm 0,0 UV-I 34 W/m 2,5 C 1,4 C 15,7 km/h (3 Bft) 97,00 %
31.10.2017 08:00 4,5 C 7,8 C 87 % 1027,2 hPa 0,0 l/m 6,8 km/h (2 Bft) W 0,40 h 0,026 mm 0,4 UV-I 144 W/m 2,5 C 3,2 C 10,9 km/h (2 Bft) 97,54 %
31.10.2017 09:00 6,2 C 7,8 C 82 % 1027,1 hPa 0,0 l/m 5,7 km/h (1 Bft) W-SW 0,97 h 0,076 mm 0,7 UV-I 355 W/m 3,4 C 5,9 C 10,1 km/h (2 Bft) 97,83 %
31.10.2017 10:00 7,3 C 8,1 C 79 % 1027,1 hPa 0,0 l/m 5,6 km/h (1 Bft) W-SW 0,47 h 0,152 mm 0,9 UV-I 296 W/m 3,9 C 6,6 C 11,0 km/h (2 Bft) 98,88 %
31.10.2017 11:00 7,9 C 8,3 C 76 % 1026,8 hPa 0,0 l/m 7,4 km/h (2 Bft) W-SW 0,50 h 0,153 mm 1,1 UV-I 250 W/m 3,9 C 6,7 C 13,0 km/h (3 Bft) 98,52 %
31.10.2017 12:00 8,5 C 8,3 C 73 % 1026,3 hPa 0,0 l/m 7,4 km/h (2 Bft) W 0,50 h 0,127 mm 1,2 UV-I 326 W/m 3,8 C 7,3 C 14,0 km/h (3 Bft) 98,44 %
31.10.2017 13:00 8,1 C 8,3 C 75 % 1026,0 hPa 0,0 l/m 5,7 km/h (1 Bft) W 0,53 h 0,152 mm 0,8 UV-I 236 W/m 3,9 C 7,6 C 11,2 km/h (2 Bft) 99,21 %
31.10.2017 14:00 8,6 C 8,3 C 71 % 1025,6 hPa 0,0 l/m 3,9 km/h (1 Bft) W-NW 0,97 h 0,127 mm 0,6 UV-I 293 W/m 3,7 C 8,6 C 8,3 km/h (2 Bft) 98,46 %
31.10.2017 15:00 7,6 C 8,3 C 74 % 1025,4 hPa 0,0 l/m 3,5 km/h (1 Bft) W 0,07 h 0,127 mm 0,0 UV-I 66 W/m 3,2 C 7,6 C 6,9 km/h (2 Bft) 97,95 %
31.10.2017 16:00 6,4 C 8,3 C 80 % 1025,4 hPa 0,0 l/m 1,6 km/h (1 Bft) W 0,20 h 0,051 mm 0,0 UV-I 22 W/m 3,2 C 6,4 C 3,6 km/h (1 Bft) 98,01 %
31.10.2017 17:00 5,6 C 8,3 C 85 % 1025,6 hPa 0,0 l/m 0,3 km/h (0 Bft) W 0,00 h 0,025 mm 0,0 UV-I 3 W/m 3,3 C 5,6 C 1,2 km/h (1 Bft) 98,14 %
31.10.2017 18:00 5,2 C 8,3 C 89 % 1025,8 hPa 0,0 l/m 1,4 km/h (1 Bft) W 0,00 h 0,000 mm 0,0 UV-I 0 W/m 3,5 C 5,2 C 2,8 km/h (1 Bft) 98,83 %
31.10.2017 19:00 5,4 C 8,3 C 87 % 1026,0 hPa 0,0 l/m 1,9 km/h (1 Bft) W-SW 0,00 h 0,000 mm 0,0 UV-I 0 W/m 3,4 C 5,4 C 3,6 km/h (1 Bft) 95,39 %
31.10.2017 20:00 5,1 C 8,3 C 89 % 1026,0 hPa 0,0 l/m 1,2 km/h (1 Bft) W-SW 0,00 h 0,000 mm 0,0 UV-I 0 W/m 3,4 C 5,1 C 2,6 km/h (1 Bft) 99,34 %
31.10.2017 21:00 5,1 C 8,3 C 88 % 1026,2 hPa 0,0 l/m 2,3 km/h (1 Bft) SW 0,00 h 0,000 mm 0,0 UV-I 0 W/m 3,2 C 5,1 C 4,3 km/h (1 Bft) 97,98 %
31.10.2017 22:00 4,7 C 8,3 C 89 % 1026,2 hPa 0,0 l/m 3,7 km/h (1 Bft) S-SW 0,00 h 0,000 mm 0,0 UV-I 0 W/m 3,0 C 4,7 C 5,5 km/h (1 Bft) 98,48 %
31.10.2017 23:00 4,0 C 8,3 C 90 % 1025,9 hPa 0,0 l/m 4,3 km/h (1 Bft) S-SW 0,00 h 0,000 mm 0,0 UV-I 0 W/m 2,5 C 4,0 C 6,6 km/h (2 Bft) 96,57 %
01.11.2017 00:00 3,6 C 8,3 C 90 % 1025,4 hPa 0,0 l/m 4,7 km/h (1 Bft) S-SW 0,00 h 0,000 mm 0,0 UV-I 0 W/m 2,1 C 3,6 C 6,7 km/h (2 Bft) 99,31 %
01.11.2017 01:00 2,8 C 8,1 C 91 % 1025,3 hPa 0,0 l/m 3,8 km/h (1 Bft) S-SW 0,00 h 0,000 mm 0,0 UV-I 0 W/m 1,6 C 2,8 C 5,6 km/h (1 Bft) 98,01 %
01.11.2017 02:00 2,4 C 7,8 C 93 % 1025,3 hPa 0,0 l/m 3,8 km/h (1 Bft) S-SW 0,00 h 0,000 mm 0,0 UV-I 0 W/m 1,4 C 2,4 C 6,5 km/h (2 Bft) 97,56 %
01.11.2017 03:00 2,5 C 7,8 C 93 % 1025,1 hPa 0,0 l/m 5,1 km/h (1 Bft) S-SW 0,00 h 0,000 mm 0,0 UV-I 0 W/m 1,4 C 2,5 C 7,7 km/h (2 Bft) 97,57 %
01.11.2017 04:00 3,2 C 7,8 C 92 % 1024,7 hPa 0,0 l/m 4,5 km/h (1 Bft) S-SW 0,00 h 0,000 mm 0,0 UV-I 0 W/m 2,1 C 3,2 C 6,8 km/h (2 Bft) 99,50 %
01.11.2017 05:00 3,7 C 7,8 C 92 % 1024,5 hPa 0,0 l/m 4,5 km/h (1 Bft) SW 0,00 h 0,000 mm 0,0 UV-I 0 W/m 2,5 C 3,7 C 6,9 km/h (2 Bft) 97,64 %
01.11.2017 06:00 3,8 C 7,8 C 92 % 1024,5 hPa 0,0 l/m 4,1 km/h (1 Bft) SW 0,00 h 0,000 mm 0,0 UV-I 5 W/m 2,6 C 3,8 C 6,5 km/h (2 Bft) 97,31 %
01.11.2017 07:00 4,1 C 7,8 C 92 % 1024,6 hPa 0,0 l/m 5,2 km/h (1 Bft) SW 0,00 h 0,000 mm 0,0 UV-I 15 W/m 2,9 C 4,1 C 7,5 km/h (2 Bft) 98,00 %
01.11.2017 08:00 4,7 C 7,8 C 91 % 1024,6 hPa 0,0 l/m 2,4 km/h (1 Bft) S-SW 0,00 h 0,000 mm 0,0 UV-I 62 W/m 3,4 C 4,7 C 4,2 km/h (1 Bft) 99,19 %
01.11.2017 09:00 5,7 C 7,8 C 89 % 1024,6 hPa 0,0 l/m 2,8 km/h (1 Bft) W-SW 0,00 h 0,025 mm 0,3 UV-I 112 W/m 4,0 C 5,7 C 4,8 km/h (1 Bft) 97,76 %
01.11.2017 10:00 6,4 C 7,8 C 86 % 1024,8 hPa 0,0 l/m 3,8 km/h (1 Bft) W 0,00 h 0,051 mm 0,5 UV-I 122 W/m 4,2 C 6,4 C 6,7 km/h (2 Bft) 96,91 %
01.11.2017 11:00 6,8 C 7,8 C 87 % 1024,8 hPa 0,4 l/m 4,2 km/h (1 Bft) W 0,00 h 0,051 mm 0,6 UV-I 137 W/m 4,8 C 6,8 C 7,0 km/h (2 Bft) 97,35 %
01.11.2017 12:00 6,4 C 7,8 C 92 % 1024,4 hPa 0,0 l/m 3,2 km/h (1 Bft) W 0,00 h 0,051 mm 0,0 UV-I 75 W/m 5,2 C 6,4 C 5,4 km/h (1 Bft) 99,53 %
01.11.2017 13:00 6,9 C 7,8 C 92 % 1024,1 hPa 0,2 l/m 5,9 km/h (2 Bft) W-SW 0,00 h 0,025 mm 0,0 UV-I 55 W/m 5,6 C 6,2 C 9,3 km/h (2 Bft) 97,75 %
01.11.2017 14:00 6,8 C 7,8 C 91 % 1023,8 hPa 0,2 l/m 6,2 km/h (2 Bft) W-SW 0,00 h 0,026 mm 0,0 UV-I 41 W/m 5,5 C 6,5 C 9,9 km/h (2 Bft) 96,28 %
01.11.2017 15:00 6,9 C 7,8 C 93 % 1023,6 hPa 0,4 l/m 3,7 km/h (1 Bft) SW 0,00 h 0,025 mm 0,0 UV-I 23 W/m 5,8 C 6,9 C 5,8 km/h (2 Bft) 98,22 %
01.11.2017 16:00 6,8 C 7,8 C 94 % 1023,3 hPa 0,2 l/m 0,5 km/h (0 Bft) S-SW 0,00 h 0,025 mm 0,0 UV-I 10 W/m 5,9 C 6,8 C 1,8 km/h (1 Bft) 98,74 %
01.11.2017 17:00 6,7 C 7,8 C 95 % 1023,4 hPa 0,2 l/m 0,2 km/h (0 Bft) S-SW 0,00 h 0,000 mm 0,0 UV-I 0 W/m 5,9 C 6,7 C 0,8 km/h (0 Bft) 97,57 %
01.11.2017 18:00 6,6 C 7,8 C 96 % 1023,5 hPa 0,0 l/m 0,1 km/h (0 Bft) S-SW 0,00 h 0,000 mm 0,0 UV-I 0 W/m 6,0 C 6,6 C 0,7 km/h (0 Bft) 97,02 %
01.11.2017 19:00 6,5 C 7,8 C 96 % 1023,2 hPa 0,0 l/m 0,5 km/h (0 Bft) S-SW 0,00 h 0,000 mm 0,0 UV-I 0 W/m 6,0 C 6,5 C 1,6 km/h (1 Bft) 98,20 %
01.11.2017 20:00 6,3 C 7,8 C 96 % 1022,7 hPa 0,0 l/m 0,7 km/h (0 Bft) S-SW 0,00 h 0,000 mm 0,0 UV-I 0 W/m 5,7 C 6,3 C 1,6 km/h (1 Bft) 98,50 %
01.11.2017 21:00 5,7 C 7,8 C 96 % 1022,2 hPa 0,0 l/m 0,8 km/h (0 Bft) SO 0,00 h 0,000 mm 0,0 UV-I 0 W/m 5,1 C 5,7 C 1,4 km/h (1 Bft) 97,09 %
01.11.2017 22:00 4,7 C 7,8 C 97 % 1021,8 hPa 0,0 l/m 1,2 km/h (1 Bft) SO 0,00 h 0,000 mm 0,0 UV-I 0 W/m 4,3 C 4,7 C 2,3 km/h (1 Bft) 97,31 %
01.11.2017 23:00 3,7 C 7,8 C 97 % 1021,7 hPa 0,0 l/m 0,4 km/h (0 Bft) NO 0,00 h 0,000 mm 0,0 UV-I 0 W/m 3,3 C 3,7 C 0,9 km/h (0 Bft) 98,97 %
02.11.2017 00:00 3,2 C 7,8 C 97 % 1021,0 hPa 0,0 l/m 2,2 km/h (1 Bft) SO 0,00 h 0,000 mm 0,0 UV-I 0 W/m 2,9 C 3,2 C 3,8 km/h (1 Bft) 98,28 %
02.11.2017 01:00 3,1 C 7,8 C 98 % 1020,3 hPa 0,0 l/m 0,5 km/h (0 Bft) SO 0,00 h 0,000 mm 0,0 UV-I 0 W/m 2,7 C 3,1 C 1,4 km/h (1 Bft) 97,49 %
02.11.2017 02:00 2,6 C 7,8 C 98 % 1019,4 hPa 0,0 l/m 0,9 km/h (0 Bft) SO 0,00 h 0,000 mm 0,0 UV-I 0 W/m 2,2 C 2,6 C 2,0 km/h (1 Bft) 97,77 %
02.11.2017 03:00 2,0 C 7,8 C 98 % 1018,9 hPa 0,0 l/m 1,4 km/h (1 Bft) NO 0,00 h 0,000 mm 0,0 UV-I 0 W/m 1,7 C 2,0 C 2,3 km/h (1 Bft) 99,43 %
02.11.2017 04:00 2,1 C 7,8 C 98 % 1018,4 hPa 0,0 l/m 0,0 km/h (0 Bft) N 0,00 h 0,000 mm 0,0 UV-I 0 W/m 1,8 C 2,1 C 0,2 km/h (0 Bft) 96,63 %
02.11.2017 05:00 2,2 C 7,8 C 98 % 1017,6 hPa 0,0 l/m 0,7 km/h (0 Bft) NO 0,00 h 0,000 mm 0,0 UV-I 0 W/m 1,9 C 2,2 C 1,7 km/h (1 Bft) 98,86 %
02.11.2017 06:00 2,2 C 7,8 C 98 % 1017,3 hPa 0,0 l/m 1,3 km/h (1 Bft) NO 0,00 h 0,000 mm 0,0 UV-I 6 W/m 1,9 C 2,2 C 2,9 km/h (1 Bft) 97,59 %
02.11.2017 07:00 2,5 C 7,8 C 98 % 1017,6 hPa 0,0 l/m 3,5 km/h (1 Bft) S-SW 0,03 h 0,000 mm 0,0 UV-I 35 W/m 2,3 C 2,5 C 5,8 km/h (2 Bft) 98,28 %
02.11.2017 08:00 3,4 C 7,8 C 98 % 1017,6 hPa 0,0 l/m 4,1 km/h (1 Bft) S-SW 0,00 h 0,025 mm 0,0 UV-I 82 W/m 3,1 C 3,4 C 6,5 km/h (2 Bft) 96,48 %
02.11.2017 09:00 5,0 C 7,8 C 98 % 1017,3 hPa 0,0 l/m 2,5 km/h (1 Bft) S-SW 0,53 h 0,026 mm 0,5 UV-I 202 W/m 4,7 C 5,0 C 4,9 km/h (1 Bft) 98,96 %
02.11.2017 10:00 6,6 C 7,8 C 98 % 1016,8 hPa 0,0 l/m 1,5 km/h (1 Bft) W-SW 0,83 h 0,076 mm 1,0 UV-I 362 W/m 6,3 C 6,6 C 3,5 km/h (1 Bft) 98,13 %
02.11.2017 11:00 9,4 C 7,8 C 93 % 1016,0 hPa 0,0 l/m 2,5 km/h (1 Bft) NW 1,00 h 0,152 mm 1,3 UV-I 479 W/m 8,3 C 9,4 C 5,3 km/h (1 Bft) 98,45 %
02.11.2017 12:00 11,0 C 7,8 C 86 % 1015,2 hPa 0,0 l/m 1,7 km/h (1 Bft) NO 1,00 h 0,229 mm 1,3 UV-I 435 W/m 8,7 C 11,0 C 4,0 km/h (1 Bft) 99,12 %
02.11.2017 13:00 13,6 C 7,8 C 75 % 1014,3 hPa 0,0 l/m 5,4 km/h (1 Bft) W-SW 1,00 h 0,203 mm 1,0 UV-I 367 W/m 9,3 C 13,3 C 10,0 km/h (2 Bft) 96,78 %
02.11.2017 14:00 14,6 C 7,8 C 64 % 1013,8 hPa 0,2 l/m 13,2 km/h (3 Bft) W-SW 0,17 h 0,203 mm 0,5 UV-I 174 W/m 7,9 C 11,5 C 19,7 km/h (3 Bft) 99,70 %
02.11.2017 15:00 14,4 C 7,8 C 65 % 1013,7 hPa 0,0 l/m 11,1 km/h (2 Bft) W-SW 1,00 h 0,153 mm 0,0 UV-I 136 W/m 8,0 C 12,1 C 17,5 km/h (3 Bft) 97,82 %
02.11.2017 16:00 13,3 C 7,8 C 70 % 1013,9 hPa 0,0 l/m 7,7 km/h (2 Bft) SW 0,23 h 0,127 mm 0,0 UV-I 21 W/m 8,0 C 12,4 C 11,9 km/h (2 Bft) 99,49 %
02.11.2017 17:00 12,9 C 7,8 C 69 % 1014,5 hPa 0,0 l/m 10,2 km/h (2 Bft) W-SW 0,00 h 0,051 mm 0,0 UV-I 0 W/m 7,4 C 10,8 C 15,8 km/h (3 Bft) 95,94 %
02.11.2017 18:00 12,4 C 7,8 C 71 % 1014,6 hPa 0,0 l/m 14,9 km/h (3 Bft) SW 0,00 h 0,050 mm 0,0 UV-I 0 W/m 7,2 C 8,1 C 22,3 km/h (4 Bft) 98,52 %
02.11.2017 19:00 12,4 C 7,8 C 71 % 1014,5 hPa 0,0 l/m 13,7 km/h (3 Bft) SW 0,00 h 0,051 mm 0,0 UV-I 0 W/m 7,4 C 8,5 C 21,2 km/h (4 Bft) 98,30 %
02.11.2017 20:00 12,2 C 7,8 C 73 % 1014,7 hPa 0,0 l/m 12,4 km/h (3 Bft) SW 0,00 h 0,051 mm 0,0 UV-I 0 W/m 7,5 C 8,9 C 18,5 km/h (3 Bft) 99,49 %
02.11.2017 21:00 12,0 C 7,8 C 75 % 1014,8 hPa 0,0 l/m 9,3 km/h (2 Bft) W-SW 0,00 h 0,051 mm 0,0 UV-I 0 W/m 7,7 C 10,3 C 14,6 km/h (3 Bft) 97,10 %
02.11.2017 22:00 11,9 C 7,8 C 77 % 1014,9 hPa 0,0 l/m 10,7 km/h (2 Bft) W-SW 0,00 h 0,025 mm 0,0 UV-I 0 W/m 7,9 C 9,4 C 15,9 km/h (3 Bft) 97,31 %
02.11.2017 23:00 11,8 C 7,8 C 78 % 1015,1 hPa 0,0 l/m 12,6 km/h (3 Bft) W-SW 0,00 h 0,026 mm 0,0 UV-I 0 W/m 8,0 C 8,3 C 19,0 km/h (3 Bft) 98,28 %
03.11.2017 00:00 11,3 C 7,8 C 78 % 1015,2 hPa 0,0 l/m 13,6 km/h (3 Bft) W-SW 0,00 h 0,000 mm 0,0 UV-I 0 W/m 7,7 C 7,3 C 19,8 km/h (4 Bft) 98,73 %
03.11.2017 01:00 10,9 C 7,8 C 81 % 1015,3 hPa 0,0 l/m 10,7 km/h (2 Bft) W-SW 0,00 h 0,025 mm 0,0 UV-I 0 W/m 7,7 C 8,3 C 16,0 km/h (3 Bft) 97,94 %
03.11.2017 02:00 10,4 C 7,8 C 84 % 1015,5 hPa 0,0 l/m 9,1 km/h (2 Bft) W-SW 0,00 h 0,026 mm 0,0 UV-I 0 W/m 7,8 C 8,6 C 14,0 km/h (3 Bft) 96,94 %
03.11.2017 03:00 10,0 C 7,8 C 86 % 1015,7 hPa 0,0 l/m 6,1 km/h (2 Bft) W-SW 0,00 h 0,025 mm 0,0 UV-I 0 W/m 7,7 C 9,7 C 9,2 km/h (2 Bft) 99,01 %
03.11.2017 04:00 9,8 C 7,8 C 87 % 1015,8 hPa 0,0 l/m 8,3 km/h (2 Bft) W-SW 0,00 h 0,000 mm 0,0 UV-I 0 W/m 7,7 C 8,5 C 12,9 km/h (3 Bft) 98,92 %
03.11.2017 05:00 9,8 C 7,8 C 87 % 1016,1 hPa 0,0 l/m 7,9 km/h (2 Bft) W-SW 0,00 h 0,026 mm 0,0 UV-I 0 W/m 7,8 C 8,7 C 12,3 km/h (3 Bft) 98,36 %
03.11.2017 06:00 9,4 C 7,8 C 89 % 1016,3 hPa 0,0 l/m 7,5 km/h (2 Bft) SW 0,00 h 0,025 mm 0,0 UV-I 5 W/m 7,6 C 8,5 C 11,6 km/h (2 Bft) 96,39 %
03.11.2017 07:00 9,3 C 7,8 C 89 % 1017,0 hPa 0,0 l/m 4,3 km/h (1 Bft) W 0,00 h 0,000 mm 0,0 UV-I 17 W/m 7,7 C 9,2 C 7,0 km/h (2 Bft) 99,01 %
03.11.2017 08:00 9,7 C 7,8 C 89 % 1017,6 hPa 0,0 l/m 4,1 km/h (1 Bft) W 0,23 h 0,025 mm 0,0 UV-I 101 W/m 8,0 C 9,7 C 6,4 km/h (2 Bft) 98,25 %
03.11.2017 09:00 10,8 C 7,8 C 85 % 1017,8 hPa 0,0 l/m 5,8 km/h (2 Bft) W-SW 0,93 h 0,051 mm 0,6 UV-I 281 W/m 8,4 C 10,6 C 10,2 km/h (2 Bft) 98,92 %
03.11.2017 10:00 11,4 C 7,8 C 83 % 1018,0 hPa 0,0 l/m 2,6 km/h (1 Bft) NW 0,33 h 0,127 mm 0,8 UV-I 230 W/m 8,5 C 11,3 C 5,9 km/h (2 Bft) 98,11 %
03.11.2017 11:00 11,8 C 7,8 C 80 % 1017,8 hPa 0,0 l/m 2,4 km/h (1 Bft) NW 0,63 h 0,127 mm 1,0 UV-I 308 W/m 8,5 C 11,8 C 5,4 km/h (1 Bft) 95,99 %
03.11.2017 12:00 11,2 C 7,8 C 81 % 1017,6 hPa 0,0 l/m 0,9 km/h (0 Bft) NW 0,10 h 0,153 mm 0,9 UV-I 131 W/m 8,1 C 11,2 C 2,7 km/h (1 Bft) 96,80 %
03.11.2017 13:00 11,8 C 7,8 C 76 % 1017,4 hPa 0,0 l/m 0,6 km/h (0 Bft) NW 0,30 h 0,076 mm 0,8 UV-I 177 W/m 7,7 C 11,8 C 1,8 km/h (1 Bft) 97,82 %
03.11.2017 14:00 12,0 C 7,8 C 76 % 1017,1 hPa 0,0 l/m 1,5 km/h (1 Bft) O-SO 0,00 h 0,076 mm 0,5 UV-I 122 W/m 7,9 C 12,0 C 2,8 km/h (1 Bft) 98,69 %
03.11.2017 15:00 11,7 C 7,9 C 78 % 1016,9 hPa 0,0 l/m 3,1 km/h (1 Bft) O-SO 0,75 h 0,076 mm 0,0 UV-I 106 W/m 8,0 C 11,7 C 4,7 km/h (1 Bft) 98,78 %
03.11.2017 16:00 10,4 C 8,2 C 82 % 1016,6 hPa 0,0 l/m 5,1 km/h (1 Bft) O-SO 0,52 h 0,051 mm 0,0 UV-I 22 W/m 7,6 C 10,4 C 7,3 km/h (2 Bft) 98,13 %
03.11.2017 17:00 9,6 C 8,3 C 84 % 1016,5 hPa 0,0 l/m 6,1 km/h (2 Bft) O 0,00 h 0,025 mm 0,0 UV-I 0 W/m 7,1 C 9,4 C 9,8 km/h (2 Bft) 97,14 %
03.11.2017 18:00 9,1 C 8,3 C 86 % 1016,4 hPa 0,0 l/m 6,5 km/h (2 Bft) O-NO 0,00 h 0,026 mm 0,0 UV-I 0 W/m 6,9 C 8,7 C 10,6 km/h (2 Bft) 98,14 %
03.11.2017 19:00 8,0 C 8,3 C 89 % 1016,2 hPa 0,0 l/m 5,5 km/h (1 Bft) O-NO 0,00 h 0,025 mm 0,0 UV-I 0 W/m 6,3 C 7,8 C 8,3 km/h (2 Bft) 99,16 %
03.11.2017 20:00 7,0 C 8,3 C 91 % 1016,2 hPa 0,0 l/m 4,3 km/h (1 Bft) O-NO 0,00 h 0,000 mm 0,0 UV-I 0 W/m 5,7 C 7,0 C 6,0 km/h (2 Bft) 97,80 %
03.11.2017 21:00 6,0 C 8,3 C 93 % 1016,2 hPa 0,0 l/m 4,1 km/h (1 Bft) O-NO 0,00 h 0,000 mm 0,0 UV-I 0 W/m 5,0 C 6,0 C 5,8 km/h (2 Bft) 97,76 %
03.11.2017 22:00 5,4 C 8,3 C 94 % 1015,8 hPa 0,0 l/m 4,3 km/h (1 Bft) O-NO 0,00 h 0,000 mm 0,0 UV-I 0 W/m 4,6 C 5,4 C 6,3 km/h (2 Bft) 97,82 %
03.11.2017 23:00 4,9 C 8,3 C 94 % 1015,3 hPa 0,0 l/m 5,1 km/h (1 Bft) O-NO 0,00 h 0,000 mm 0,0 UV-I 0 W/m 4,0 C 4,9 C 8,0 km/h (2 Bft) 98,94 %
04.11.2017 00:00 4,6 C 8,0 C 93 % 1014,8 hPa 0,0 l/m 5,3 km/h (1 Bft) O-NO 0,00 h 0,000 mm 0,0 UV-I 0 W/m 3,6 C 4,4 C 7,9 km/h (2 Bft) 96,33 %
04.11.2017 01:00 3,8 C 7,8 C 94 % 1014,5 hPa 0,0 l/m 1,3 km/h (1 Bft) O-NO 0,00 h 0,000 mm 0,0 UV-I 0 W/m 3,0 C 3,8 C 2,6 km/h (1 Bft) 98,52 %
04.11.2017 02:00 2,2 C 7,8 C 95 % 1014,2 hPa 0,0 l/m 0,1 km/h (0 Bft) O-NO 0,00 h 0,000 mm 0,0 UV-I 0 W/m 1,6 C 2,2 C 0,2 km/h (0 Bft) 98,42 %
04.11.2017 03:00 1,6 C 7,8 C 96 % 1014,1 hPa 0,0 l/m 0,5 km/h (0 Bft) O-NO 0,00 h 0,000 mm 0,0 UV-I 0 W/m 1,0 C 1,6 C 0,9 km/h (0 Bft) 97,10 %
04.11.2017 04:00 0,8 C 7,8 C 97 % 1014,1 hPa 0,0 l/m 2,1 km/h (1 Bft) S-SW 0,00 h 0,000 mm 0,0 UV-I 0 W/m 0,3 C 0,8 C 3,5 km/h (1 Bft) 97,80 %
04.11.2017 05:00 0,0 C 7,8 C 97 % 1014,1 hPa 0,2 l/m 3,8 km/h (1 Bft) S-SW 0,00 h 0,000 mm 0,0 UV-I 0 W/m -0,4 C 0,0 C 5,4 km/h (1 Bft) 97,81 %
04.11.2017 06:00 -0,5 C 7,8 C 97 % 1014,3 hPa 0,0 l/m 4,2 km/h (1 Bft) S-SW 0,00 h 0,000 mm 0,0 UV-I 8 W/m -0,9 C -0,5 C 6,2 km/h (2 Bft) 97,68 %
04.11.2017 07:00 -0,5 C 7,8 C 97 % 1014,7 hPa 0,0 l/m 3,6 km/h (1 Bft) S-SW 0,90 h 0,000 mm 0,0 UV-I 58 W/m -0,9 C -0,5 C 5,7 km/h (1 Bft) 97,18 %
04.11.2017 08:00 0,3 C 7,8 C 97 % 1015,2 hPa 0,0 l/m 3,0 km/h (1 Bft) S-SW 0,17 h 0,025 mm 0,0 UV-I 107 W/m -0,1 C 0,3 C 5,1 km/h (1 Bft) 99,22 %
04.11.2017 09:00 1,9 C 7,8 C 98 % 1015,4 hPa 0,0 l/m 2,0 km/h (1 Bft) S-SW 0,43 h 0,026 mm 0,5 UV-I 177 W/m 1,6 C 1,9 C 3,9 km/h (1 Bft) 97,44 %
04.11.2017 10:00 3,6 C 7,8 C 98 % 1015,5 hPa 0,0 l/m 1,0 km/h (0 Bft) S-SW 0,73 h 0,051 mm 0,8 UV-I 255 W/m 3,3 C 3,6 C 2,2 km/h (1 Bft) 96,25 %
04.11.2017 11:00 5,9 C 7,8 C 96 % 1015,3 hPa 0,0 l/m 1,1 km/h (1 Bft) SW 1,00 h 0,101 mm 1,1 UV-I 333 W/m 5,3 C 5,9 C 2,6 km/h (1 Bft) 95,68 %
04.11.2017 12:00 7,9 C 7,8 C 90 % 1014,9 hPa 0,0 l/m 2,0 km/h (1 Bft) O-NO 0,93 h 0,127 mm 1,0 UV-I 312 W/m 6,3 C 7,9 C 3,9 km/h (1 Bft) 95,44 %
04.11.2017 13:00 8,9 C 7,8 C 87 % 1014,4 hPa 0,0 l/m 3,3 km/h (1 Bft) NO 1,00 h 0,127 mm 0,8 UV-I 282 W/m 6,8 C 8,9 C 5,4 km/h (1 Bft) 96,65 %
04.11.2017 14:00 9,2 C 7,8 C 84 % 1014,0 hPa 0,0 l/m 4,3 km/h (1 Bft) NO 0,50 h 0,127 mm 0,6 UV-I 174 W/m 6,6 C 9,2 C 6,6 km/h (2 Bft) 95,29 %
04.11.2017 15:00 9,0 C 7,8 C 88 % 1014,1 hPa 0,0 l/m 4,2 km/h (1 Bft) NO 0,00 h 0,076 mm 0,0 UV-I 73 W/m 7,1 C 9,0 C 6,2 km/h (2 Bft) 98,93 %
04.11.2017 16:00 8,2 C 7,8 C 90 % 1014,0 hPa 0,0 l/m 3,1 km/h (1 Bft) NO 0,10 h 0,051 mm 0,0 UV-I 15 W/m 6,6 C 8,2 C 4,9 km/h (1 Bft) 97,50 %
04.11.2017 17:00 7,0 C 7,8 C 93 % 1014,2 hPa 0,0 l/m 0,3 km/h (0 Bft) NO 0,00 h 0,000 mm 0,0 UV-I 0 W/m 5,9 C 7,0 C 0,7 km/h (0 Bft) 98,50 %
04.11.2017 18:00 6,7 C 7,8 C 94 % 1014,3 hPa 0,0 l/m 0,7 km/h (0 Bft) NO 0,00 h 0,000 mm 0,0 UV-I 0 W/m 5,8 C 6,7 C 1,0 km/h (0 Bft) 96,85 %
04.11.2017 19:00 6,1 C 7,8 C 94 % 1014,1 hPa 0,0 l/m 0,4 km/h (0 Bft) NO 0,00 h 0,000 mm 0,0 UV-I 0 W/m 5,3 C 6,1 C 1,3 km/h (1 Bft) 98,38 %
04.11.2017 20:00 6,1 C 7,8 C 95 % 1013,8 hPa 0,0 l/m 2,3 km/h (1 Bft) O-NO 0,00 h 0,000 mm 0,0 UV-I 0 W/m 5,3 C 6,1 C 3,7 km/h (1 Bft) 98,75 %
04.11.2017 21:00 5,8 C 7,8 C 95 % 1013,8 hPa 0,0 l/m 1,2 km/h (1 Bft) O-NO 0,00 h 0,000 mm 0,0 UV-I 0 W/m 5,0 C 5,8 C 2,0 km/h (1 Bft) 97,05 %
04.11.2017 22:00 5,2 C 7,8 C 96 % 1013,4 hPa 0,0 l/m 2,3 km/h (1 Bft) O-NO 0,00 h 0,000 mm 0,0 UV-I 0 W/m 4,6 C 5,2 C 3,7 km/h (1 Bft) 97,84 %
04.11.2017 23:00 4,9 C 7,8 C 96 % 1013,0 hPa 0,0 l/m 1,5 km/h (1 Bft) O-NO 0,00 h 0,000 mm 0,0 UV-I 0 W/m 4,3 C 4,9 C 2,6 km/h (1 Bft) 97,75 %
05.11.2017 00:00 4,8 C 7,8 C 97 % 1012,6 hPa 0,0 l/m 2,2 km/h (1 Bft) O-NO 0,00 h 0,000 mm 0,0 UV-I 0 W/m 4,3 C 4,8 C 3,8 km/h (1 Bft) 99,18 %
05.11.2017 01:00 4,1 C 7,8 C 97 % 1012,3 hPa 0,0 l/m 1,4 km/h (1 Bft) O-NO 0,00 h 0,000 mm 0,0 UV-I 0 W/m 3,6 C 4,1 C 2,6 km/h (1 Bft) 95,93 %
05.11.2017 02:00 3,0 C 7,8 C 97 % 1012,1 hPa 0,0 l/m 0,4 km/h (0 Bft) O-NO 0,00 h 0,000 mm 0,0 UV-I 0 W/m 2,6 C 3,0 C 1,2 km/h (1 Bft) 99,45 %
05.11.2017 03:00 3,5 C 7,8 C 98 % 1011,3 hPa 0,0 l/m 1,3 km/h (1 Bft) O-NO 0,00 h 0,000 mm 0,0 UV-I 0 W/m 3,2 C 3,5 C 3,1 km/h (1 Bft) 97,99 %
05.11.2017 04:00 3,9 C 7,8 C 98 % 1010,7 hPa 0,0 l/m 6,5 km/h (2 Bft) O-NO 0,00 h 0,000 mm 0,0 UV-I 0 W/m 3,6 C 3,0 C 9,9 km/h (2 Bft) 97,48 %
05.11.2017 05:00 4,2 C 7,8 C 98 % 1009,9 hPa 0,0 l/m 8,8 km/h (2 Bft) O-NO 0,00 h 0,000 mm 0,0 UV-I 0 W/m 3,9 C 2,1 C 13,4 km/h (3 Bft) 96,67 %
05.11.2017 06:00 4,5 C 7,8 C 98 % 1009,1 hPa 0,0 l/m 11,5 km/h (2 Bft) O-NO 0,00 h 0,000 mm 0,0 UV-I 4 W/m 4,2 C 0,8 C 17,0 km/h (3 Bft) 98,52 %
05.11.2017 07:00 4,3 C 7,8 C 98 % 1009,1 hPa 0,0 l/m 10,1 km/h (2 Bft) O-NO 0,00 h 0,000 mm 0,0 UV-I 15 W/m 4,0 C 1,3 C 15,4 km/h (3 Bft) 98,63 %
05.11.2017 08:00 4,4 C 7,5 C 98 % 1008,8 hPa 0,0 l/m 12,4 km/h (3 Bft) O-NO 0,00 h 0,000 mm 0,0 UV-I 44 W/m 4,1 C -0,1 C 18,1 km/h (3 Bft) 97,43 %
05.11.2017 09:00 4,7 C 7,3 C 98 % 1008,0 hPa 0,0 l/m 13,5 km/h (3 Bft) O-NO 0,00 h 0,025 mm 0,0 UV-I 69 W/m 4,4 C -0,4 C 19,0 km/h (3 Bft) 98,02 %
05.11.2017 10:00 5,1 C 7,3 C 98 % 1007,9 hPa 0,0 l/m 10,1 km/h (2 Bft) O-NO 0,00 h 0,026 mm 0,3 UV-I 110 W/m 4,8 C 2,2 C 15,2 km/h (3 Bft) 98,59 %
05.11.2017 11:00 5,6 C 7,6 C 98 % 1007,1 hPa 0,0 l/m 11,4 km/h (2 Bft) O-NO 0,00 h 0,051 mm 0,4 UV-I 116 W/m 5,3 C 1,9 C 16,7 km/h (3 Bft) 98,34 %
05.11.2017 12:00 6,3 C 7,8 C 98 % 1006,4 hPa 0,0 l/m 9,5 km/h (2 Bft) O-NO 0,00 h 0,050 mm 0,5 UV-I 155 W/m 5,9 C 3,9 C 14,2 km/h (3 Bft) 96,80 %
05.11.2017 13:00 6,9 C 7,8 C 95 % 1005,9 hPa 0,0 l/m 2,9 km/h (1 Bft) O-NO 0,00 h 0,077 mm 0,4 UV-I 96 W/m 6,2 C 6,7 C 5,7 km/h (1 Bft) 96,78 %
05.11.2017 14:00 6,8 C 7,8 C 94 % 1005,8 hPa 0,0 l/m 2,4 km/h (1 Bft) S 0,00 h 0,050 mm 0,0 UV-I 31 W/m 5,8 C 6,8 C 4,6 km/h (1 Bft) 98,43 %
05.11.2017 15:00 6,7 C 7,8 C 94 % 1006,7 hPa 0,0 l/m 5,9 km/h (2 Bft) W-SW 0,00 h 0,026 mm 0,0 UV-I 25 W/m 5,8 C 6,3 C 9,9 km/h (2 Bft) 98,43 %
05.11.2017 16:00 5,9 C 7,8 C 96 % 1007,6 hPa 0,0 l/m 5,4 km/h (1 Bft) SW 0,00 h 0,025 mm 0,0 UV-I 9 W/m 5,3 C 5,6 C 8,7 km/h (2 Bft) 96,68 %
05.11.2017 17:00 5,7 C 7,8 C 97 % 1008,6 hPa 0,0 l/m 5,6 km/h (1 Bft) SW 0,00 h 0,000 mm 0,0 UV-I 0 W/m 5,2 C 5,5 C 8,5 km/h (2 Bft) 98,26 %
05.11.2017 18:00 7,7 C 7,8 C 96 % 1009,9 hPa 0,4 l/m 14,8 km/h (3 Bft) W-SW 0,00 h 0,000 mm 0,0 UV-I 0 W/m 7,0 C 2,8 C 21,3 km/h (4 Bft) 98,44 %
05.11.2017 19:00 7,9 C 7,8 C 92 % 1011,0 hPa 0,8 l/m 19,3 km/h (3 Bft) W-SW 0,00 h 0,000 mm 0,0 UV-I 0 W/m 6,8 C 1,0 C 29,2 km/h (5 Bft) 99,11 %
05.11.2017 20:00 6,6 C 7,8 C 92 % 1011,7 hPa 0,4 l/m 22,0 km/h (4 Bft) SW 0,00 h 0,026 mm 0,0 UV-I 0 W/m 5,3 C -1,7 C 33,2 km/h (5 Bft) 95,77 %
05.11.2017 21:00 5,9 C 7,8 C 90 % 1012,5 hPa 0,0 l/m 22,8 km/h (4 Bft) SW 0,00 h 0,025 mm 0,0 UV-I 0 W/m 4,5 C -2,9 C 34,7 km/h (5 Bft) 99,55 %
05.11.2017 22:00 5,7 C 7,8 C 92 % 1012,6 hPa 0,0 l/m 18,6 km/h (3 Bft) W-SW 0,00 h 0,025 mm 0,0 UV-I 0 W/m 4,5 C -1,6 C 28,2 km/h (4 Bft) 97,82 %
05.11.2017 23:00 5,7 C 7,8 C 92 % 1012,8 hPa 0,0 l/m 15,7 km/h (3 Bft) SW 0,00 h 0,026 mm 0,0 UV-I 0 W/m 4,4 C -0,4 C 24,4 km/h (4 Bft) 98,12 %
Min-Datum _ 04.11.17 05.11.17 02.11.17 05.11.17 - 31.10.17 - - - - - 04.11.17 30.10.17 31.10.17 04.11.17
_ Min-Zeit 06:40 08:12 14:02 13:56 - 16:30 - - - - - 06:40 06:26 16:32 16:15
Minimum _ -0,7 C 7,2 C 62 % 1005,6 hPa - 0,0 km/h (0 Bft) - - - - - -1,1 C -5,2 C 0,0 km/h (0 Bft) 85,96 %
Max-Datum _ 02.11.17 30.10.17 02.11.17 31.10.17 05.11.17 30.10.17 - 02.11.17 02.11.17 30.10.17 31.10.17 02.11.17 02.11.17 30.10.17 30.10.17
_ Max-Zeit 13:56 00:00 00:06 08:42 19:10 09:56 - 09:19 12:00 11:42 10:48 13:24 13:48 00:18 00:00
Maximum _ 15,2 C 8,9 C 98 % 1027,3 hPa 0,8 l/m 31,8 km/h
W (5 Bft)
- 0,05 h 0,229 mm 1,5 UV-I 601 W/m 9,9 C 14,7 C 53,1 km/h
W-SW (7 Bft)
100,00 %
Durchschnitt _ 6,3 C 8,0 C 88 % 1018,2 hPa #4,8 l/m 7,1 km/h (2 Bft) W-SW #23:06 h #6,350 mm 0,8 UV-I 135 W/m 4,4 C 4,5 C 11,2 km/h (2 Bft) 97,92 %